sensor_id;sensor_type;location;lat;lon;timestamp;P1;durP1;ratioP1;P2;durP2;ratioP2
52432;SDS011;38352;53.244;6.594;2023-04-15T00:00:20;14.02;;;6.30;;
52432;SDS011;38352;53.244;6.594;2023-04-15T00:02:46;11.88;;;5.63;;
52432;SDS011;38352;53.244;6.594;2023-04-15T00:05:12;12.05;;;5.85;;
52432;SDS011;38352;53.244;6.594;2023-04-15T00:07:38;12.25;;;5.78;;
52432;SDS011;38352;53.244;6.594;2023-04-15T00:10:06;12.48;;;6.18;;
52432;SDS011;38352;53.244;6.594;2023-04-15T00:12:32;13.18;;;5.78;;
52432;SDS011;38352;53.244;6.594;2023-04-15T00:14:58;13.00;;;6.25;;
52432;SDS011;38352;53.244;6.594;2023-04-15T00:17:24;13.05;;;6.57;;
52432;SDS011;38352;53.244;6.594;2023-04-15T00:19:50;11.85;;;6.70;;
52432;SDS011;38352;53.244;6.594;2023-04-15T00:22:16;13.35;;;6.60;;
52432;SDS011;38352;53.244;6.594;2023-04-15T00:24:42;10.10;;;5.85;;
52432;SDS011;38352;53.244;6.594;2023-04-15T00:27:08;12.32;;;6.07;;
52432;SDS011;38352;53.244;6.594;2023-04-15T00:29:35;11.18;;;5.97;;
52432;SDS011;38352;53.244;6.594;2023-04-15T00:32:01;12.10;;;6.30;;
52432;SDS011;38352;53.244;6.594;2023-04-15T00:34:27;13.90;;;6.47;;
52432;SDS011;38352;53.244;6.594;2023-04-15T00:36:53;13.02;;;6.25;;
52432;SDS011;38352;53.244;6.594;2023-04-15T00:39:20;12.85;;;6.13;;
52432;SDS011;38352;53.244;6.594;2023-04-15T00:41:46;11.68;;;5.63;;
52432;SDS011;38352;53.244;6.594;2023-04-15T00:44:13;19.00;;;6.97;;
52432;SDS011;38352;53.244;6.594;2023-04-15T00:46:39;13.00;;;6.10;;
52432;SDS011;38352;53.244;6.594;2023-04-15T00:49:06;11.77;;;6.22;;
52432;SDS011;38352;53.244;6.594;2023-04-15T00:51:33;12.70;;;6.03;;
52432;SDS011;38352;53.244;6.594;2023-04-15T00:54:04;11.25;;;6.95;;
52432;SDS011;38352;53.244;6.594;2023-04-15T00:56:35;11.65;;;6.13;;
52432;SDS011;38352;53.244;6.594;2023-04-15T00:59:02;15.55;;;6.32;;
52432;SDS011;38352;53.244;6.594;2023-04-15T01:01:29;11.75;;;6.43;;
52432;SDS011;38352;53.244;6.594;2023-04-15T01:03:56;15.35;;;7.15;;
52432;SDS011;38352;53.244;6.594;2023-04-15T01:06:22;12.93;;;6.82;;
52432;SDS011;38352;53.244;6.594;2023-04-15T01:08:49;10.82;;;6.28;;
52432;SDS011;38352;53.244;6.594;2023-04-15T01:11:15;11.13;;;6.75;;
52432;SDS011;38352;53.244;6.594;2023-04-15T01:13:42;14.35;;;7.40;;
52432;SDS011;38352;53.244;6.594;2023-04-15T01:16:08;12.52;;;6.80;;
52432;SDS011;38352;53.244;6.594;2023-04-15T01:18:37;10.32;;;6.72;;
52432;SDS011;38352;53.244;6.594;2023-04-15T01:21:04;13.85;;;7.30;;
52432;SDS011;38352;53.244;6.594;2023-04-15T01:23:31;14.68;;;7.45;;
52432;SDS011;38352;53.244;6.594;2023-04-15T01:25:58;13.50;;;7.40;;
52432;SDS011;38352;53.244;6.594;2023-04-15T01:28:24;14.15;;;7.32;;
52432;SDS011;38352;53.244;6.594;2023-04-15T01:31:04;11.88;;;6.97;;
52432;SDS011;38352;53.244;6.594;2023-04-15T01:33:31;14.00;;;7.20;;
52432;SDS011;38352;53.244;6.594;2023-04-15T01:35:57;14.68;;;7.80;;
52432;SDS011;38352;53.244;6.594;2023-04-15T01:38:25;13.98;;;7.60;;
52432;SDS011;38352;53.244;6.594;2023-04-15T01:40:52;15.63;;;7.90;;
52432;SDS011;38352;53.244;6.594;2023-04-15T01:43:18;14.45;;;8.27;;
52432;SDS011;38352;53.244;6.594;2023-04-15T01:45:44;13.70;;;7.60;;
52432;SDS011;38352;53.244;6.594;2023-04-15T01:48:11;14.20;;;7.68;;
52432;SDS011;38352;53.244;6.594;2023-04-15T01:50:37;15.43;;;8.18;;
52432;SDS011;38352;53.244;6.594;2023-04-15T01:53:03;13.32;;;7.05;;
52432;SDS011;38352;53.244;6.594;2023-04-15T01:55:29;15.82;;;7.80;;
52432;SDS011;38352;53.244;6.594;2023-04-15T01:57:56;15.95;;;8.77;;
52432;SDS011;38352;53.244;6.594;2023-04-15T02:00:22;13.90;;;8.10;;
52432;SDS011;38352;53.244;6.594;2023-04-15T02:02:49;16.80;;;8.50;;
52432;SDS011;38352;53.244;6.594;2023-04-15T02:05:15;14.10;;;7.80;;
52432;SDS011;38352;53.244;6.594;2023-04-15T02:07:42;15.00;;;8.23;;
52432;SDS011;38352;53.244;6.594;2023-04-15T02:10:08;16.38;;;8.35;;
52432;SDS011;38352;53.244;6.594;2023-04-15T02:12:34;15.02;;;8.05;;
52432;SDS011;38352;53.244;6.594;2023-04-15T02:15:00;17.80;;;8.55;;
52432;SDS011;38352;53.244;6.594;2023-04-15T02:17:26;18.88;;;9.25;;
52432;SDS011;38352;53.244;6.594;2023-04-15T02:19:54;19.98;;;10.27;;
52432;SDS011;38352;53.244;6.594;2023-04-15T02:22:21;15.05;;;9.13;;
52432;SDS011;38352;53.244;6.594;2023-04-15T02:24:47;16.92;;;9.48;;
52432;SDS011;38352;53.244;6.594;2023-04-15T02:27:16;14.98;;;8.93;;
52432;SDS011;38352;53.244;6.594;2023-04-15T02:29:46;17.42;;;10.13;;
52432;SDS011;38352;53.244;6.594;2023-04-15T02:32:15;18.20;;;9.90;;
52432;SDS011;38352;53.244;6.594;2023-04-15T02:34:41;17.50;;;9.52;;
52432;SDS011;38352;53.244;6.594;2023-04-15T02:37:08;20.60;;;10.38;;
52432;SDS011;38352;53.244;6.594;2023-04-15T02:39:34;18.48;;;11.20;;
52432;SDS011;38352;53.244;6.594;2023-04-15T02:42:00;20.90;;;10.85;;
52432;SDS011;38352;53.244;6.594;2023-04-15T02:44:27;22.08;;;10.57;;
52432;SDS011;38352;53.244;6.594;2023-04-15T02:46:53;19.77;;;10.77;;
52432;SDS011;38352;53.244;6.594;2023-04-15T02:49:20;19.88;;;10.25;;
52432;SDS011;38352;53.244;6.594;2023-04-15T02:51:47;18.92;;;10.93;;
52432;SDS011;38352;53.244;6.594;2023-04-15T02:54:20;19.92;;;11.18;;
52432;SDS011;38352;53.244;6.594;2023-04-15T02:56:47;21.45;;;11.40;;
52432;SDS011;38352;53.244;6.594;2023-04-15T02:59:14;20.52;;;11.88;;
52432;SDS011;38352;53.244;6.594;2023-04-15T03:01:40;23.45;;;13.10;;
52432;SDS011;38352;53.244;6.594;2023-04-15T03:04:06;21.90;;;11.68;;
52432;SDS011;38352;53.244;6.594;2023-04-15T03:06:33;20.70;;;11.55;;
52432;SDS011;38352;53.244;6.594;2023-04-15T03:08:59;22.02;;;11.63;;
52432;SDS011;38352;53.244;6.594;2023-04-15T03:11:26;23.50;;;12.55;;
52432;SDS011;38352;53.244;6.594;2023-04-15T03:13:52;22.67;;;13.20;;
52432;SDS011;38352;53.244;6.594;2023-04-15T03:16:18;20.42;;;11.70;;
52432;SDS011;38352;53.244;6.594;2023-04-15T03:18:45;19.95;;;11.55;;
52432;SDS011;38352;53.244;6.594;2023-04-15T03:21:11;20.77;;;11.85;;
52432;SDS011;38352;53.244;6.594;2023-04-15T03:23:37;22.75;;;12.60;;
52432;SDS011;38352;53.244;6.594;2023-04-15T03:26:03;20.98;;;11.95;;
52432;SDS011;38352;53.244;6.594;2023-04-15T03:28:30;19.00;;;12.00;;
52432;SDS011;38352;53.244;6.594;2023-04-15T03:30:56;22.17;;;12.80;;
52432;SDS011;38352;53.244;6.594;2023-04-15T03:33:23;21.50;;;11.98;;
52432;SDS011;38352;53.244;6.594;2023-04-15T03:35:50;20.08;;;11.32;;
52432;SDS011;38352;53.244;6.594;2023-04-15T03:38:16;22.52;;;12.13;;
52432;SDS011;38352;53.244;6.594;2023-04-15T03:40:42;19.95;;;11.57;;
52432;SDS011;38352;53.244;6.594;2023-04-15T03:43:08;17.05;;;11.07;;
52432;SDS011;38352;53.244;6.594;2023-04-15T03:45:35;21.17;;;11.65;;
52432;SDS011;38352;53.244;6.594;2023-04-15T03:48:01;18.30;;;10.48;;
52432;SDS011;38352;53.244;6.594;2023-04-15T03:50:27;21.55;;;11.88;;
52432;SDS011;38352;53.244;6.594;2023-04-15T03:52:54;21.92;;;12.25;;
52432;SDS011;38352;53.244;6.594;2023-04-15T03:55:20;24.88;;;12.75;;
52432;SDS011;38352;53.244;6.594;2023-04-15T03:57:46;23.90;;;13.48;;
52432;SDS011;38352;53.244;6.594;2023-04-15T04:00:12;23.40;;;12.82;;
52432;SDS011;38352;53.244;6.594;2023-04-15T04:02:39;21.70;;;11.95;;
52432;SDS011;38352;53.244;6.594;2023-04-15T04:05:05;24.25;;;13.07;;
52432;SDS011;38352;53.244;6.594;2023-04-15T04:07:32;23.60;;;13.10;;
52432;SDS011;38352;53.244;6.594;2023-04-15T04:09:58;23.67;;;12.18;;
52432;SDS011;38352;53.244;6.594;2023-04-15T04:12:24;22.65;;;12.70;;
52432;SDS011;38352;53.244;6.594;2023-04-15T04:14:51;22.65;;;12.77;;
52432;SDS011;38352;53.244;6.594;2023-04-15T04:17:17;20.13;;;11.18;;
52432;SDS011;38352;53.244;6.594;2023-04-15T04:19:43;21.45;;;12.82;;
52432;SDS011;38352;53.244;6.594;2023-04-15T04:22:09;22.15;;;12.77;;
52432;SDS011;38352;53.244;6.594;2023-04-15T04:24:36;20.45;;;11.73;;
52432;SDS011;38352;53.244;6.594;2023-04-15T04:27:02;21.48;;;11.73;;
52432;SDS011;38352;53.244;6.594;2023-04-15T04:29:28;22.42;;;11.90;;
52432;SDS011;38352;53.244;6.594;2023-04-15T04:31:54;21.52;;;11.30;;
52432;SDS011;38352;53.244;6.594;2023-04-15T04:34:20;20.40;;;12.10;;
52432;SDS011;38352;53.244;6.594;2023-04-15T04:36:46;20.45;;;12.15;;
52432;SDS011;38352;53.244;6.594;2023-04-15T04:39:12;21.50;;;12.68;;
52432;SDS011;38352;53.244;6.594;2023-04-15T04:41:39;27.23;;;12.70;;
52432;SDS011;38352;53.244;6.594;2023-04-15T04:44:05;23.02;;;12.45;;
52432;SDS011;38352;53.244;6.594;2023-04-15T04:46:31;21.67;;;11.88;;
52432;SDS011;38352;53.244;6.594;2023-04-15T04:48:57;25.05;;;13.05;;
52432;SDS011;38352;53.244;6.594;2023-04-15T04:51:23;23.00;;;12.95;;
52432;SDS011;38352;53.244;6.594;2023-04-15T04:53:50;19.13;;;11.98;;
52432;SDS011;38352;53.244;6.594;2023-04-15T04:56:16;25.52;;;13.88;;
52432;SDS011;38352;53.244;6.594;2023-04-15T04:58:42;23.67;;;12.68;;
52432;SDS011;38352;53.244;6.594;2023-04-15T05:01:08;24.13;;;12.73;;
52432;SDS011;38352;53.244;6.594;2023-04-15T05:03:35;24.55;;;13.48;;
52432;SDS011;38352;53.244;6.594;2023-04-15T05:06:02;20.52;;;11.48;;
52432;SDS011;38352;53.244;6.594;2023-04-15T05:08:30;22.42;;;12.70;;
52432;SDS011;38352;53.244;6.594;2023-04-15T05:10:56;24.10;;;12.43;;
52432;SDS011;38352;53.244;6.594;2023-04-15T05:13:22;23.65;;;13.88;;
52432;SDS011;38352;53.244;6.594;2023-04-15T05:15:48;22.48;;;12.55;;
52432;SDS011;38352;53.244;6.594;2023-04-15T05:18:15;23.17;;;12.50;;
52432;SDS011;38352;53.244;6.594;2023-04-15T05:20:44;23.67;;;12.85;;
52432;SDS011;38352;53.244;6.594;2023-04-15T05:23:10;19.67;;;12.15;;
52432;SDS011;38352;53.244;6.594;2023-04-15T05:25:36;22.08;;;12.50;;
52432;SDS011;38352;53.244;6.594;2023-04-15T05:28:02;22.45;;;13.05;;
52432;SDS011;38352;53.244;6.594;2023-04-15T05:30:28;22.50;;;12.85;;
52432;SDS011;38352;53.244;6.594;2023-04-15T05:32:54;23.70;;;12.23;;
52432;SDS011;38352;53.244;6.594;2023-04-15T05:35:20;23.58;;;13.35;;
52432;SDS011;38352;53.244;6.594;2023-04-15T05:37:47;26.00;;;12.93;;
52432;SDS011;38352;53.244;6.594;2023-04-15T05:40:13;22.50;;;12.57;;
52432;SDS011;38352;53.244;6.594;2023-04-15T05:42:39;20.77;;;12.90;;
52432;SDS011;38352;53.244;6.594;2023-04-15T05:45:06;20.98;;;12.52;;
52432;SDS011;38352;53.244;6.594;2023-04-15T05:47:34;23.80;;;13.18;;
52432;SDS011;38352;53.244;6.594;2023-04-15T05:50:01;26.23;;;13.27;;
52432;SDS011;38352;53.244;6.594;2023-04-15T05:52:27;20.08;;;11.60;;
52432;SDS011;38352;53.244;6.594;2023-04-15T05:54:54;22.00;;;12.30;;
52432;SDS011;38352;53.244;6.594;2023-04-15T05:57:20;24.60;;;12.65;;
52432;SDS011;38352;53.244;6.594;2023-04-15T05:59:47;18.77;;;11.60;;
52432;SDS011;38352;53.244;6.594;2023-04-15T06:02:13;25.42;;;12.65;;
52432;SDS011;38352;53.244;6.594;2023-04-15T06:04:39;21.20;;;12.25;;
52432;SDS011;38352;53.244;6.594;2023-04-15T06:07:05;20.98;;;11.93;;
52432;SDS011;38352;53.244;6.594;2023-04-15T06:09:31;21.48;;;12.07;;
52432;SDS011;38352;53.244;6.594;2023-04-15T06:11:57;22.42;;;12.27;;
52432;SDS011;38352;53.244;6.594;2023-04-15T06:14:23;21.27;;;12.73;;
52432;SDS011;38352;53.244;6.594;2023-04-15T06:16:50;20.25;;;11.68;;
52432;SDS011;38352;53.244;6.594;2023-04-15T06:19:16;23.00;;;11.38;;
52432;SDS011;38352;53.244;6.594;2023-04-15T06:21:42;21.27;;;11.82;;
52432;SDS011;38352;53.244;6.594;2023-04-15T06:24:09;20.40;;;12.15;;
52432;SDS011;38352;53.244;6.594;2023-04-15T06:26:35;22.63;;;12.10;;
52432;SDS011;38352;53.244;6.594;2023-04-15T06:29:02;20.38;;;11.55;;
52432;SDS011;38352;53.244;6.594;2023-04-15T06:31:28;18.60;;;10.77;;
52432;SDS011;38352;53.244;6.594;2023-04-15T06:33:55;20.15;;;11.10;;
52432;SDS011;38352;53.244;6.594;2023-04-15T06:36:21;19.98;;;11.98;;
52432;SDS011;38352;53.244;6.594;2023-04-15T06:38:47;18.92;;;10.77;;
52432;SDS011;38352;53.244;6.594;2023-04-15T06:41:13;22.48;;;11.60;;
52432;SDS011;38352;53.244;6.594;2023-04-15T06:43:39;18.30;;;10.05;;
52432;SDS011;38352;53.244;6.594;2023-04-15T06:46:05;21.65;;;10.05;;
52432;SDS011;38352;53.244;6.594;2023-04-15T06:48:32;18.67;;;10.43;;
52432;SDS011;38352;53.244;6.594;2023-04-15T06:50:58;18.50;;;10.32;;
52432;SDS011;38352;53.244;6.594;2023-04-15T06:53:24;20.13;;;10.23;;
52432;SDS011;38352;53.244;6.594;2023-04-15T06:55:52;17.17;;;9.45;;
52432;SDS011;38352;53.244;6.594;2023-04-15T06:58:18;23.30;;;10.40;;
52432;SDS011;38352;53.244;6.594;2023-04-15T07:00:44;18.50;;;10.20;;
52432;SDS011;38352;53.244;6.594;2023-04-15T07:03:11;19.92;;;10.27;;
52432;SDS011;38352;53.244;6.594;2023-04-15T07:05:37;18.55;;;10.02;;
52432;SDS011;38352;53.244;6.594;2023-04-15T07:08:05;18.33;;;10.32;;
52432;SDS011;38352;53.244;6.594;2023-04-15T07:10:32;18.08;;;10.18;;
52432;SDS011;38352;53.244;6.594;2023-04-15T07:12:58;17.38;;;9.27;;
52432;SDS011;38352;53.244;6.594;2023-04-15T07:15:25;18.88;;;9.43;;
52432;SDS011;38352;53.244;6.594;2023-04-15T07:17:51;16.73;;;8.73;;
52432;SDS011;38352;53.244;6.594;2023-04-15T07:20:18;15.18;;;9.10;;
52432;SDS011;38352;53.244;6.594;2023-04-15T07:22:44;13.70;;;8.38;;
52432;SDS011;38352;53.244;6.594;2023-04-15T07:25:10;17.40;;;8.60;;
52432;SDS011;38352;53.244;6.594;2023-04-15T07:27:36;14.18;;;7.80;;
52432;SDS011;38352;53.244;6.594;2023-04-15T07:30:02;19.73;;;8.45;;
52432;SDS011;38352;53.244;6.594;2023-04-15T07:32:29;15.68;;;8.10;;
52432;SDS011;38352;53.244;6.594;2023-04-15T07:34:55;14.55;;;8.82;;
52432;SDS011;38352;53.244;6.594;2023-04-15T07:37:21;16.77;;;8.05;;
52432;SDS011;38352;53.244;6.594;2023-04-15T07:39:48;15.02;;;8.63;;
52432;SDS011;38352;53.244;6.594;2023-04-15T07:42:14;16.55;;;8.27;;
52432;SDS011;38352;53.244;6.594;2023-04-15T07:44:40;14.07;;;7.80;;
52432;SDS011;38352;53.244;6.594;2023-04-15T07:47:06;14.35;;;6.93;;
52432;SDS011;38352;53.244;6.594;2023-04-15T07:49:32;13.02;;;7.30;;
52432;SDS011;38352;53.244;6.594;2023-04-15T07:51:58;13.13;;;7.38;;
52432;SDS011;38352;53.244;6.594;2023-04-15T07:54:24;12.98;;;7.68;;
52432;SDS011;38352;53.244;6.594;2023-04-15T07:56:51;11.90;;;6.70;;
52432;SDS011;38352;53.244;6.594;2023-04-15T07:59:17;13.35;;;6.85;;
52432;SDS011;38352;53.244;6.594;2023-04-15T08:01:44;12.88;;;7.20;;
52432;SDS011;38352;53.244;6.594;2023-04-15T08:04:10;14.30;;;6.32;;
52432;SDS011;38352;53.244;6.594;2023-04-15T08:06:36;14.40;;;6.70;;
52432;SDS011;38352;53.244;6.594;2023-04-15T08:09:04;12.82;;;5.90;;
52432;SDS011;38352;53.244;6.594;2023-04-15T08:11:30;13.63;;;6.10;;
52432;SDS011;38352;53.244;6.594;2023-04-15T08:13:56;14.00;;;6.88;;
52432;SDS011;38352;53.244;6.594;2023-04-15T08:16:23;10.75;;;6.85;;
52432;SDS011;38352;53.244;6.594;2023-04-15T08:18:50;10.10;;;6.07;;
52432;SDS011;38352;53.244;6.594;2023-04-15T08:21:16;12.95;;;5.30;;
52432;SDS011;38352;53.244;6.594;2023-04-15T08:23:43;11.25;;;6.22;;
52432;SDS011;38352;53.244;6.594;2023-04-15T08:26:10;10.07;;;5.13;;
52432;SDS011;38352;53.244;6.594;2023-04-15T08:28:36;8.80;;;4.85;;
52432;SDS011;38352;53.244;6.594;2023-04-15T08:31:03;8.80;;;4.75;;
52432;SDS011;38352;53.244;6.594;2023-04-15T08:33:29;9.38;;;4.90;;
52432;SDS011;38352;53.244;6.594;2023-04-15T08:35:55;9.63;;;5.05;;
52432;SDS011;38352;53.244;6.594;2023-04-15T08:38:21;8.68;;;4.72;;
52432;SDS011;38352;53.244;6.594;2023-04-15T08:40:48;8.30;;;3.92;;
52432;SDS011;38352;53.244;6.594;2023-04-15T08:43:17;8.15;;;3.83;;
52432;SDS011;38352;53.244;6.594;2023-04-15T08:45:44;8.73;;;3.58;;
52432;SDS011;38352;53.244;6.594;2023-04-15T08:48:12;8.32;;;3.70;;
52432;SDS011;38352;53.244;6.594;2023-04-15T08:50:41;7.53;;;3.95;;
52432;SDS011;38352;53.244;6.594;2023-04-15T08:53:07;7.95;;;3.70;;
52432;SDS011;38352;53.244;6.594;2023-04-15T08:55:35;5.93;;;3.55;;
52432;SDS011;38352;53.244;6.594;2023-04-15T08:58:03;8.88;;;3.40;;
52432;SDS011;38352;53.244;6.594;2023-04-15T09:00:31;8.32;;;3.42;;
52432;SDS011;38352;53.244;6.594;2023-04-15T09:02:58;6.13;;;2.70;;
52432;SDS011;38352;53.244;6.594;2023-04-15T09:05:24;7.32;;;3.33;;
52432;SDS011;38352;53.244;6.594;2023-04-15T09:07:50;6.07;;;2.75;;
52432;SDS011;38352;53.244;6.594;2023-04-15T09:10:16;9.18;;;3.70;;
52432;SDS011;38352;53.244;6.594;2023-04-15T09:12:42;8.93;;;3.80;;
52432;SDS011;38352;53.244;6.594;2023-04-15T09:15:10;6.82;;;2.67;;
52432;SDS011;38352;53.244;6.594;2023-04-15T09:17:43;8.30;;;3.30;;
52432;SDS011;38352;53.244;6.594;2023-04-15T09:20:10;6.63;;;2.63;;
52432;SDS011;38352;53.244;6.594;2023-04-15T09:22:38;4.03;;;2.28;;
52432;SDS011;38352;53.244;6.594;2023-04-15T09:27:51;5.60;;;2.10;;
52432;SDS011;38352;53.244;6.594;2023-04-15T09:30:17;7.20;;;2.80;;
52432;SDS011;38352;53.244;6.594;2023-04-15T09:35:19;5.90;;;2.10;;
52432;SDS011;38352;53.244;6.594;2023-04-15T09:37:46;4.90;;;2.00;;
52432;SDS011;38352;53.244;6.594;2023-04-15T09:40:12;4.07;;;2.03;;
52432;SDS011;38352;53.244;6.594;2023-04-15T09:42:53;7.95;;;2.30;;
52432;SDS011;38352;53.244;6.594;2023-04-15T09:45:20;5.07;;;2.45;;
52432;SDS011;38352;53.244;6.594;2023-04-15T09:47:46;3.60;;;1.90;;
52432;SDS011;38352;53.244;6.594;2023-04-15T09:50:12;4.97;;;2.20;;
52432;SDS011;38352;53.244;6.594;2023-04-15T09:52:41;3.55;;;1.73;;
52432;SDS011;38352;53.244;6.594;2023-04-15T09:55:08;4.20;;;2.20;;
52432;SDS011;38352;53.244;6.594;2023-04-15T09:57:35;4.15;;;1.95;;
52432;SDS011;38352;53.244;6.594;2023-04-15T10:00:05;7.72;;;1.90;;
52432;SDS011;38352;53.244;6.594;2023-04-15T10:02:32;9.27;;;2.20;;
52432;SDS011;38352;53.244;6.594;2023-04-15T10:04:58;4.22;;;1.50;;
52432;SDS011;38352;53.244;6.594;2023-04-15T10:07:25;4.97;;;2.13;;
52432;SDS011;38352;53.244;6.594;2023-04-15T10:09:51;3.95;;;2.13;;
52432;SDS011;38352;53.244;6.594;2023-04-15T10:12:18;7.47;;;2.58;;
52432;SDS011;38352;53.244;6.594;2023-04-15T10:14:51;4.35;;;2.03;;
52432;SDS011;38352;53.244;6.594;2023-04-15T10:17:20;7.00;;;3.10;;
52432;SDS011;38352;53.244;6.594;2023-04-15T10:19:47;7.65;;;2.58;;
52432;SDS011;38352;53.244;6.594;2023-04-15T10:22:13;5.55;;;2.25;;
52432;SDS011;38352;53.244;6.594;2023-04-15T10:24:39;4.70;;;2.30;;
52432;SDS011;38352;53.244;6.594;2023-04-15T10:27:05;6.55;;;2.40;;
52432;SDS011;38352;53.244;6.594;2023-04-15T10:29:31;5.97;;;2.72;;
52432;SDS011;38352;53.244;6.594;2023-04-15T10:31:58;6.45;;;2.45;;
52432;SDS011;38352;53.244;6.594;2023-04-15T10:34:24;9.05;;;2.97;;
52432;SDS011;38352;53.244;6.594;2023-04-15T10:36:51;6.95;;;2.67;;
52432;SDS011;38352;53.244;6.594;2023-04-15T10:42:10;8.85;;;2.97;;
52432;SDS011;38352;53.244;6.594;2023-04-15T10:44:37;5.43;;;2.65;;
52432;SDS011;38352;53.244;6.594;2023-04-15T10:47:21;9.77;;;3.10;;
52432;SDS011;38352;53.244;6.594;2023-04-15T10:49:51;6.68;;;2.70;;
52432;SDS011;38352;53.244;6.594;2023-04-15T10:52:21;10.95;;;3.13;;
52432;SDS011;38352;53.244;6.594;2023-04-15T10:54:47;8.13;;;2.60;;
52432;SDS011;38352;53.244;6.594;2023-04-15T10:57:15;7.25;;;2.97;;
52432;SDS011;38352;53.244;6.594;2023-04-15T11:05:15;6.10;;;2.33;;
52432;SDS011;38352;53.244;6.594;2023-04-15T11:12:38;8.60;;;3.25;;
52432;SDS011;38352;53.244;6.594;2023-04-15T11:17:50;8.20;;;2.72;;
52432;SDS011;38352;53.244;6.594;2023-04-15T11:20:17;6.00;;;2.72;;
52432;SDS011;38352;53.244;6.594;2023-04-15T11:22:49;8.38;;;2.30;;
52432;SDS011;38352;53.244;6.594;2023-04-15T11:25:22;7.90;;;2.53;;
52432;SDS011;38352;53.244;6.594;2023-04-15T11:27:49;8.50;;;2.55;;
52432;SDS011;38352;53.244;6.594;2023-04-15T11:30:19;8.57;;;2.47;;
52432;SDS011;38352;53.244;6.594;2023-04-15T11:32:49;7.10;;;2.47;;
52432;SDS011;38352;53.244;6.594;2023-04-15T11:35:15;8.93;;;2.97;;
52432;SDS011;38352;53.244;6.594;2023-04-15T11:37:42;10.57;;;3.05;;
52432;SDS011;38352;53.244;6.594;2023-04-15T11:40:09;12.65;;;2.92;;
52432;SDS011;38352;53.244;6.594;2023-04-15T11:42:35;7.13;;;2.55;;
52432;SDS011;38352;53.244;6.594;2023-04-15T11:45:08;7.53;;;2.35;;
52432;SDS011;38352;53.244;6.594;2023-04-15T11:47:35;9.93;;;2.50;;
52432;SDS011;38352;53.244;6.594;2023-04-15T11:52:41;8.88;;;2.67;;
52432;SDS011;38352;53.244;6.594;2023-04-15T11:55:07;7.15;;;2.88;;
52432;SDS011;38352;53.244;6.594;2023-04-15T11:57:34;5.90;;;2.30;;
52432;SDS011;38352;53.244;6.594;2023-04-15T12:00:00;9.18;;;2.70;;
52432;SDS011;38352;53.244;6.594;2023-04-15T12:02:29;8.77;;;2.60;;
52432;SDS011;38352;53.244;6.594;2023-04-15T12:05:07;5.40;;;2.38;;
52432;SDS011;38352;53.244;6.594;2023-04-15T12:07:56;8.15;;;2.53;;
52432;SDS011;38352;53.244;6.594;2023-04-15T12:10:19;5.90;;;2.17;;
52432;SDS011;38352;53.244;6.594;2023-04-15T12:12:48;8.00;;;2.28;;
52432;SDS011;38352;53.244;6.594;2023-04-15T12:15:14;12.82;;;2.83;;
52432;SDS011;38352;53.244;6.594;2023-04-15T12:17:40;6.78;;;2.50;;
52432;SDS011;38352;53.244;6.594;2023-04-15T12:20:07;9.63;;;2.78;;
52432;SDS011;38352;53.244;6.594;2023-04-15T12:22:36;8.18;;;2.28;;
52432;SDS011;38352;53.244;6.594;2023-04-15T12:25:02;6.07;;;2.15;;
52432;SDS011;38352;53.244;6.594;2023-04-15T12:27:30;8.30;;;2.78;;
52432;SDS011;38352;53.244;6.594;2023-04-15T12:30:05;8.80;;;2.30;;
52432;SDS011;38352;53.244;6.594;2023-04-15T12:32:35;10.40;;;2.25;;
52432;SDS011;38352;53.244;6.594;2023-04-15T12:35:01;5.43;;;1.98;;
52432;SDS011;38352;53.244;6.594;2023-04-15T12:37:27;6.30;;;1.92;;
52432;SDS011;38352;53.244;6.594;2023-04-15T12:39:53;7.63;;;2.08;;
52432;SDS011;38352;53.244;6.594;2023-04-15T12:42:19;8.00;;;2.20;;
52432;SDS011;38352;53.244;6.594;2023-04-15T12:44:46;11.50;;;2.58;;
52432;SDS011;38352;53.244;6.594;2023-04-15T12:47:12;8.07;;;1.95;;
52432;SDS011;38352;53.244;6.594;2023-04-15T12:49:39;9.35;;;2.30;;
52432;SDS011;38352;53.244;6.594;2023-04-15T12:52:05;7.90;;;2.13;;
52432;SDS011;38352;53.244;6.594;2023-04-15T12:54:31;7.53;;;1.75;;
52432;SDS011;38352;53.244;6.594;2023-04-15T12:56:58;6.05;;;2.20;;
52432;SDS011;38352;53.244;6.594;2023-04-15T12:59:25;7.45;;;2.63;;
52432;SDS011;38352;53.244;6.594;2023-04-15T13:01:51;8.32;;;2.55;;
52432;SDS011;38352;53.244;6.594;2023-04-15T13:04:18;6.45;;;2.42;;
52432;SDS011;38352;53.244;6.594;2023-04-15T13:06:44;8.60;;;2.13;;
52432;SDS011;38352;53.244;6.594;2023-04-15T13:09:10;9.23;;;2.40;;
52432;SDS011;38352;53.244;6.594;2023-04-15T13:11:37;10.00;;;2.65;;
52432;SDS011;38352;53.244;6.594;2023-04-15T13:14:03;12.15;;;2.72;;
52432;SDS011;38352;53.244;6.594;2023-04-15T13:16:30;7.78;;;3.28;;
52432;SDS011;38352;53.244;6.594;2023-04-15T13:19:00;11.10;;;3.15;;
52432;SDS011;38352;53.244;6.594;2023-04-15T13:21:26;8.63;;;3.53;;
52432;SDS011;38352;53.244;6.594;2023-04-15T13:23:52;9.23;;;3.15;;
52432;SDS011;38352;53.244;6.594;2023-04-15T13:26:19;10.77;;;3.30;;
52432;SDS011;38352;53.244;6.594;2023-04-15T13:28:45;10.10;;;3.08;;
52432;SDS011;38352;53.244;6.594;2023-04-15T13:31:11;9.40;;;2.58;;
52432;SDS011;38352;53.244;6.594;2023-04-15T13:33:37;11.43;;;2.67;;
52432;SDS011;38352;53.244;6.594;2023-04-15T13:36:03;10.63;;;4.03;;
52432;SDS011;38352;53.244;6.594;2023-04-15T13:38:29;11.43;;;3.97;;
52432;SDS011;38352;53.244;6.594;2023-04-15T13:40:55;10.68;;;2.65;;
52432;SDS011;38352;53.244;6.594;2023-04-15T13:43:22;7.60;;;2.67;;
52432;SDS011;38352;53.244;6.594;2023-04-15T13:45:48;7.82;;;2.83;;
52432;SDS011;38352;53.244;6.594;2023-04-15T13:48:14;8.10;;;3.25;;
52432;SDS011;38352;53.244;6.594;2023-04-15T13:50:40;8.77;;;3.10;;
52432;SDS011;38352;53.244;6.594;2023-04-15T13:53:09;6.97;;;2.88;;
52432;SDS011;38352;53.244;6.594;2023-04-15T13:55:36;8.52;;;3.53;;
52432;SDS011;38352;53.244;6.594;2023-04-15T13:58:06;8.32;;;3.35;;
52432;SDS011;38352;53.244;6.594;2023-04-15T14:00:32;8.43;;;3.40;;
52432;SDS011;38352;53.244;6.594;2023-04-15T14:02:58;11.15;;;3.45;;
52432;SDS011;38352;53.244;6.594;2023-04-15T14:05:24;11.32;;;3.33;;
52432;SDS011;38352;53.244;6.594;2023-04-15T14:07:50;6.00;;;2.95;;
52432;SDS011;38352;53.244;6.594;2023-04-15T14:10:16;9.55;;;3.70;;
52432;SDS011;38352;53.244;6.594;2023-04-15T14:12:42;8.45;;;2.80;;
52432;SDS011;38352;53.244;6.594;2023-04-15T14:15:08;13.35;;;3.30;;
52432;SDS011;38352;53.244;6.594;2023-04-15T14:17:35;11.80;;;3.83;;
52432;SDS011;38352;53.244;6.594;2023-04-15T14:20:01;12.43;;;3.90;;
52432;SDS011;38352;53.244;6.594;2023-04-15T14:22:27;9.85;;;3.85;;
52432;SDS011;38352;53.244;6.594;2023-04-15T14:24:53;14.65;;;4.40;;
52432;SDS011;38352;53.244;6.594;2023-04-15T14:27:19;11.32;;;3.53;;
52432;SDS011;38352;53.244;6.594;2023-04-15T14:29:46;11.73;;;3.83;;
52432;SDS011;38352;53.244;6.594;2023-04-15T14:32:12;10.80;;;3.63;;
52432;SDS011;38352;53.244;6.594;2023-04-15T14:34:39;12.55;;;4.57;;
52432;SDS011;38352;53.244;6.594;2023-04-15T14:37:05;8.68;;;3.65;;
52432;SDS011;38352;53.244;6.594;2023-04-15T14:39:31;12.70;;;3.83;;
52432;SDS011;38352;53.244;6.594;2023-04-15T14:41:57;14.70;;;4.10;;
52432;SDS011;38352;53.244;6.594;2023-04-15T14:44:24;14.40;;;4.18;;
52432;SDS011;38352;53.244;6.594;2023-04-15T14:46:50;13.73;;;4.30;;
52432;SDS011;38352;53.244;6.594;2023-04-15T14:49:16;13.65;;;4.10;;
52432;SDS011;38352;53.244;6.594;2023-04-15T14:51:42;13.05;;;3.47;;
52432;SDS011;38352;53.244;6.594;2023-04-15T14:54:10;15.63;;;4.03;;
52432;SDS011;38352;53.244;6.594;2023-04-15T14:56:36;9.05;;;3.78;;